메인 페이지
METAR-TAF:

METAR-TAF

공항 :

마푸투, 모잠비크

위도: 25-55S, 경도: 032-34E, 고도: 39m

현재 날씨관측

예보는 33분 전, 22:00시(UTC)에 발표되었습니다.
7kt
온도 20°C
습도 56%
기압 1014 hPa
시정 10km 이상
1500m 미만 상공 구름 및 적란운 없음

METAR: FQMA 182200Z 36007KT CAVOK 20/11 Q1014 NOSIG

시각: 00:33 (22:33 UTC)

예보

예보는 6 시간 33분 전, 16:00시(UTC)에 발표되었습니다.
예보 대상 시간: 18일 18시부터 19일 24시까지 (UTC)
북북서12kt
시정 10km 이상
1500m 미만 상공 구름 및 적란운 없음
전환 중
19일 18시부터 19일 20시까지 (UTC)
여러 방향의 바람 3kt
시정 10km 이상
고도 2500ft 상공 구름 많음

TAF: FQMA 181600Z 1818/1924 34012KT CAVOK BECMG 1918/1920 VRB03KT 9999 BKN025 TX31/1913Z TN15/1903Z

4,000개 이상의 공항 관측 자료 및 예보 (METAR 및 TAF 보고).

지도상에서 검색 가능한 기상관측소가 노란 점과 빨간 점으로 표시되어 있습니다.

기상관측소 명을 보려면 표시 위로 마우스를 이동하세요.

날씨 관측과 예보를 보려면 클릭하세요.

지도 변경 : 확대하려면 엑스 표시가 있는 녹색 버튼, 축소하려면 빼기 표시가 있는 녹색 버튼, 다음 페이지의 지도를 보려면 녹색 화살표를 클릭하세요.


METAR-TAF: